aviador You're here:

CYKY Decoded Metar

KINDERSLEY in SK, CANADA
Report Time2017-11-20 13:05:00
UTC Time2017-11-20 13:28:44
Flight Rules vfr VFR
Wind330° at 19 Gusting to 26 kt
W.Decomp.*RWY 35: 15.8 kt HW 10.6 kt LCW
RWY 26: 10.6 kt HW 15.8 kt RCW
W.Rank330° ranks 3
Current wind is above 330° avg. (9.6)
Visibility9999 m
Phenomena:Low Drifting Snow
Light Snow
Clouds:Overcast 050 Hf
Expected CloudBase > 400 ft AGL from Temp-Dew spread
Ceiling5,000 ft
Temp-6°C (ISA -16)
Dew Point-7°C (93% RH)
AAT-15.6°C
QNH996 hPa
Density Alt892 ft
Elevation2,277 ft
Report Wrong Elevation
Raw Report
SPECI CYKY 201305Z 33019G26KT 10SM -SN DRSN OVC050 M06/M07 A2942 RMK
SC8 SLP995=

Extra information for CYKY:More info

Metar Taf Metar & Taf Last 4 Metars F.Rules Stats Wind Profile Meteogram Temp Stats Airport Information Weather charts Add Link Nearby VenuesMetar ALERT Operation Metar Decoded Social comments